createdAt,value
2022-08-19T00:02:01.614Z,27.34
2022-08-19T00:04:07.080Z,27.30
2022-08-19T00:06:11.491Z,27.27
2022-08-19T00:08:13.723Z,27.25
2022-08-19T00:10:17.337Z,27.22
2022-08-19T00:12:20.025Z,27.18
2022-08-19T00:14:24.297Z,27.15
2022-08-19T00:16:27.030Z,27.11
2022-08-19T00:18:29.648Z,27.09
2022-08-19T00:20:32.255Z,27.04
2022-08-19T00:22:34.997Z,27.02
2022-08-19T00:24:39.090Z,27.00
2022-08-19T00:26:42.765Z,26.94
2022-08-19T00:28:45.602Z,26.89
2022-08-19T00:30:48.198Z,26.88
2022-08-19T00:32:55.568Z,26.88
2022-08-19T00:34:58.415Z,26.83
2022-08-19T00:37:01.063Z,26.81
2022-08-19T00:39:03.468Z,26.77
2022-08-19T00:41:07.296Z,26.77
2022-08-19T00:43:14.496Z,26.75
2022-08-19T00:45:21.456Z,26.75
2022-08-19T00:47:23.636Z,26.71
2022-08-19T00:49:37.253Z,26.67
2022-08-19T00:51:39.298Z,26.66
2022-08-19T00:53:42.076Z,26.66
2022-08-19T00:55:51.422Z,26.64
2022-08-19T00:58:01.695Z,26.62
2022-08-19T01:00:07.467Z,26.61
2022-08-19T01:02:09.986Z,26.59
2022-08-19T01:04:13.067Z,26.55
2022-08-19T01:06:15.733Z,26.55
2022-08-19T01:08:23.374Z,26.50
2022-08-19T01:10:37.657Z,26.43
2022-08-19T01:12:41.584Z,26.45
2022-08-19T01:14:44.109Z,26.47
2022-08-19T01:16:48.144Z,26.43
2022-08-19T01:18:51.068Z,26.41
2022-08-19T01:20:57.207Z,26.42
2022-08-19T01:23:02.601Z,26.39
2022-08-19T01:25:12.874Z,26.35
2022-08-19T01:27:18.087Z,26.30
2022-08-19T01:29:20.471Z,26.26
2022-08-19T01:31:28.163Z,26.25
2022-08-19T01:33:32.402Z,26.24
2022-08-19T01:35:37.212Z,26.25
2022-08-19T01:37:52.936Z,26.10
2022-08-19T01:39:55.234Z,25.98
2022-08-19T01:41:57.486Z,25.76
2022-08-19T01:44:09.938Z,25.73
2022-08-19T01:46:24.594Z,25.68
2022-08-19T01:48:30.499Z,25.63
2022-08-19T01:50:34.308Z,25.64
2022-08-19T01:52:38.336Z,25.64
2022-08-19T01:54:40.492Z,25.62
2022-08-19T01:56:45.340Z,25.62
2022-08-19T01:59:15.758Z,25.62
2022-08-19T02:01:18.508Z,25.72
2022-08-19T02:03:20.901Z,25.73
2022-08-19T02:05:26.492Z,25.74
2022-08-19T02:07:29.635Z,25.78
2022-08-19T02:09:33.406Z,25.75
2022-08-19T02:11:39.664Z,25.80
2022-08-19T02:13:42.127Z,25.80
2022-08-19T02:15:44.548Z,25.82
2022-08-19T02:17:47.857Z,25.82
2022-08-19T02:19:50.185Z,25.84
2022-08-19T02:21:52.962Z,25.82
2022-08-19T02:23:58.085Z,25.80
2022-08-19T02:26:00.500Z,25.79
2022-08-19T02:28:03.123Z,25.77
2022-08-19T02:30:07.212Z,25.73
2022-08-19T02:32:09.335Z,25.75
2022-08-19T02:34:11.806Z,25.72
2022-08-19T02:36:15.623Z,25.71
2022-08-19T02:38:26.995Z,25.68
2022-08-19T02:40:35.137Z,25.59
2022-08-19T02:42:37.383Z,25.42
2022-08-19T02:44:40.320Z,25.38
2022-08-19T02:46:43.158Z,25.30
2022-08-19T02:48:45.561Z,25.06
2022-08-19T02:50:51.710Z,25.01
2022-08-19T02:52:58.340Z,25.00
2022-08-19T02:55:01.480Z,25.00
2022-08-19T02:57:04.117Z,25.03
2022-08-19T02:59:12.269Z,24.89
2022-08-19T03:01:24.045Z,24.60
2022-08-19T03:03:27.050Z,24.62
2022-08-19T03:05:48.180Z,24.71
2022-08-19T03:07:51.453Z,24.75
2022-08-19T03:09:56.741Z,24.69
2022-08-19T03:11:59.292Z,24.72
2022-08-19T03:14:02.836Z,24.55
2022-08-19T03:16:07.243Z,24.40
2022-08-19T03:18:10.076Z,24.51
2022-08-19T03:20:12.801Z,24.51
2022-08-19T03:22:15.202Z,24.60
2022-08-19T03:24:19.984Z,24.34
2022-08-19T03:26:22.634Z,24.37
2022-08-19T03:28:25.295Z,24.24
2022-08-19T03:30:27.497Z,24.29
2022-08-19T03:32:33.257Z,24.39
2022-08-19T03:34:37.937Z,24.47
2022-08-19T03:36:40.645Z,24.40
2022-08-19T03:38:47.560Z,24.48
2022-08-19T03:40:49.886Z,24.34
2022-08-19T03:42:52.193Z,24.34
2022-08-19T03:44:54.596Z,24.47
2022-08-19T03:46:59.314Z,24.33
2022-08-19T03:49:05.898Z,24.37
2022-08-19T03:51:30.578Z,24.41
2022-08-19T03:53:35.646Z,24.37
2022-08-19T03:55:43.091Z,24.43
2022-08-19T03:57:49.890Z,24.51
2022-08-19T03:59:51.986Z,24.42
2022-08-19T04:01:56.895Z,24.56
2022-08-19T04:04:02.052Z,24.52
2022-08-19T04:06:19.469Z,24.51
2022-08-19T04:08:22.306Z,24.61
2022-08-19T04:10:25.312Z,24.67
2022-08-19T04:12:28.390Z,24.73
2022-08-19T04:14:31.663Z,24.80
2022-08-19T04:16:35.060Z,24.86
2022-08-19T04:18:39.859Z,24.73
2022-08-19T04:20:47.052Z,24.70
2022-08-19T04:22:49.573Z,24.51
2022-08-19T04:24:52.184Z,24.47
2022-08-19T04:26:57.503Z,24.60
2022-08-19T04:29:04.407Z,24.62
2022-08-19T04:31:06.900Z,24.66
2022-08-19T04:33:09.861Z,24.77
2022-08-19T04:35:17.688Z,24.73
2022-08-19T04:37:21.244Z,24.87
2022-08-19T04:39:49.214Z,24.93
2022-08-19T04:42:09.941Z,25.05
2022-08-19T04:44:13.103Z,25.19
2022-08-19T04:46:23.484Z,25.27
2022-08-19T04:48:44.916Z,25.32
2022-08-19T04:50:53.377Z,25.44
2022-08-19T04:52:57.206Z,25.50
2022-08-19T04:54:59.893Z,25.59
2022-08-19T04:57:01.924Z,25.67
2022-08-19T04:59:04.994Z,25.74
2022-08-19T05:01:07.112Z,25.83
2022-08-19T05:03:09.665Z,25.94
2022-08-19T05:05:12.052Z,26.05
2022-08-19T05:07:14.655Z,26.04
2022-08-19T05:09:18.107Z,26.18
2022-08-19T05:11:26.638Z,26.21
2022-08-19T05:13:29.134Z,26.28
2022-08-19T05:15:34.552Z,26.39
2022-08-19T05:17:38.937Z,26.46
2022-08-19T05:20:00.101Z,26.54
2022-08-19T05:22:20.770Z,26.61
2022-08-19T05:24:24.774Z,26.62
2022-08-19T05:26:27.719Z,26.62
2022-08-19T05:28:29.927Z,26.75
2022-08-19T05:30:46.911Z,26.74
2022-08-19T05:32:50.357Z,26.81
2022-08-19T05:34:56.460Z,26.91
2022-08-19T05:37:00.221Z,26.88
2022-08-19T05:39:04.216Z,26.82
2022-08-19T05:41:14.187Z,26.90
2022-08-19T05:43:17.128Z,26.88
2022-08-19T05:45:19.677Z,27.12
2022-08-19T05:47:22.488Z,27.27
2022-08-19T05:49:26.630Z,27.52
2022-08-19T05:51:29.467Z,27.73
2022-08-19T05:53:35.024Z,27.89
2022-08-19T05:55:40.275Z,28.01
2022-08-19T05:57:42.870Z,28.11
2022-08-19T05:59:47.687Z,28.10
2022-08-19T06:01:52.043Z,28.18
2022-08-19T06:03:55.109Z,28.20
2022-08-19T06:05:59.844Z,28.37
2022-08-19T06:08:02.404Z,28.47
2022-08-19T06:10:10.632Z,28.51
2022-08-19T06:12:12.865Z,28.55
2022-08-19T06:14:19.731Z,28.59
2022-08-19T06:16:34.588Z,28.69
2022-08-19T06:18:36.945Z,28.85
2022-08-19T06:20:55.435Z,28.94
2022-08-19T06:22:58.329Z,29.03
2022-08-19T06:25:00.614Z,29.08
2022-08-19T06:27:06.827Z,29.09
2022-08-19T06:29:12.253Z,29.10
2022-08-19T06:31:29.519Z,29.17
2022-08-19T06:33:31.840Z,29.17
2022-08-19T06:35:39.650Z,29.28
2022-08-19T06:37:44.058Z,29.31
2022-08-19T06:39:46.789Z,29.38
2022-08-19T06:41:58.155Z,29.43
2022-08-19T06:44:01.559Z,29.57
2022-08-19T06:46:13.047Z,29.45
2022-08-19T06:48:17.208Z,29.46
2022-08-19T06:50:20.849Z,29.48
2022-08-19T06:52:27.607Z,29.54
2022-08-19T06:54:31.428Z,29.56
2022-08-19T06:56:39.939Z,29.62
2022-08-19T06:58:42.345Z,29.79
2022-08-19T07:00:44.966Z,29.89
2022-08-19T07:02:52.192Z,29.94
2022-08-19T07:05:04.781Z,30.08
2022-08-19T07:07:19.874Z,30.19
2022-08-19T07:09:23.427Z,30.28
2022-08-19T07:11:26.679Z,30.35
2022-08-19T07:13:34.145Z,30.43
2022-08-19T07:15:39.804Z,30.50
2022-08-19T07:17:42.293Z,30.45
2022-08-19T07:19:45.215Z,30.62
2022-08-19T07:21:54.252Z,30.81
2022-08-19T07:23:58.505Z,30.88
2022-08-19T07:26:11.063Z,30.99
2022-08-19T07:28:15.807Z,30.98
2022-08-19T07:30:29.906Z,31.20
2022-08-19T07:32:35.043Z,31.35
2022-08-19T07:34:38.831Z,31.38
2022-08-19T07:36:44.401Z,31.46
2022-08-19T07:38:49.782Z,31.63
2022-08-19T07:40:52.862Z,31.70
2022-08-19T07:42:55.321Z,31.64
2022-08-19T07:44:58.637Z,31.80
2022-08-19T07:47:01.543Z,31.80
2022-08-19T07:49:05.549Z,31.82
2022-08-19T07:51:09.935Z,31.92
2022-08-19T07:53:13.456Z,31.85
2022-08-19T07:55:42.619Z,31.93
2022-08-19T07:57:40.149Z,32.05
2022-08-19T08:00:32.801Z,31.95
2022-08-19T08:02:35.848Z,32.14
2022-08-19T08:04:56.959Z,32.19
2022-08-19T08:07:18.070Z,32.20
2022-08-19T08:09:30.705Z,32.28
2022-08-19T08:11:33.517Z,32.38
2022-08-19T08:13:42.643Z,32.47
2022-08-19T08:15:45.976Z,32.61
2022-08-19T08:17:51.551Z,32.75
2022-08-19T08:19:55.100Z,32.83
2022-08-19T08:22:00.083Z,32.93
2022-08-19T08:24:02.696Z,33.04
2022-08-19T08:26:05.991Z,33.11
2022-08-19T08:28:11.395Z,33.15
2022-08-19T08:30:25.849Z,33.18
2022-08-19T08:32:33.678Z,33.26
2022-08-19T08:34:39.369Z,33.32
2022-08-19T08:36:46.249Z,33.40
2022-08-19T08:38:49.334Z,33.45
2022-08-19T08:40:57.188Z,33.54
2022-08-19T08:43:11.166Z,33.72
2022-08-19T08:45:19.777Z,33.82
2022-08-19T08:47:26.525Z,33.95
2022-08-19T08:49:48.054Z,33.97
2022-08-19T08:52:06.280Z,34.07
2022-08-19T08:54:13.199Z,34.17
2022-08-19T08:56:18.442Z,34.21
2022-08-19T08:58:32.944Z,34.31
2022-08-19T09:00:41.720Z,34.44
2022-08-19T09:02:45.251Z,34.48
2022-08-19T09:04:55.709Z,34.60
2022-08-19T09:07:35.350Z,34.71
2022-08-19T09:09:43.682Z,34.78
2022-08-19T09:12:01.657Z,34.88
2022-08-19T09:14:40.656Z,34.98
2022-08-19T09:16:39.880Z,34.95
2022-08-19T09:19:00.124Z,34.89
2022-08-19T09:21:02.691Z,34.91
2022-08-19T09:23:05.888Z,34.93
2022-08-19T09:25:11.259Z,35.00
2022-08-19T09:27:18.489Z,35.07
2022-08-19T09:29:22.575Z,35.12
2022-08-19T09:31:28.230Z,35.19
2022-08-19T09:33:30.760Z,35.25
2022-08-19T09:35:49.636Z,35.31
2022-08-19T09:37:59.665Z,35.28
2022-08-19T09:40:02.564Z,35.33
2022-08-19T09:42:06.116Z,35.37
2022-08-19T09:44:19.126Z,35.41
2022-08-19T09:46:24.387Z,35.51
2022-08-19T09:48:27.740Z,35.50
2022-08-19T09:50:33.328Z,35.38
2022-08-19T09:52:39.774Z,35.49
2022-08-19T09:54:57.494Z,35.49
2022-08-19T09:57:04.696Z,35.60
2022-08-19T09:59:11.350Z,35.73
2022-08-19T10:01:19.737Z,35.73
2022-08-19T10:03:25.604Z,35.81
2022-08-19T10:05:55.228Z,35.85
2022-08-19T10:07:58.664Z,35.75
2022-08-19T10:10:01.150Z,35.83
2022-08-19T10:12:06.253Z,35.76
2022-08-19T10:14:08.951Z,35.70
2022-08-19T10:16:16.974Z,35.82
2022-08-19T10:18:21.720Z,35.89
2022-08-19T10:20:23.975Z,35.95
2022-08-19T10:22:28.797Z,36.07
2022-08-19T10:24:34.733Z,36.12
2022-08-19T10:26:43.108Z,36.22
2022-08-19T10:28:47.073Z,36.33
2022-08-19T10:30:49.414Z,36.37
2022-08-19T10:32:51.486Z,36.40
2022-08-19T10:34:57.110Z,36.45
2022-08-19T10:37:02.081Z,36.42
2022-08-19T10:39:08.770Z,36.46
2022-08-19T10:41:18.760Z,36.47
2022-08-19T10:43:21.083Z,36.56
2022-08-19T10:45:28.150Z,36.64
2022-08-19T10:47:31.563Z,36.69
2022-08-19T10:49:54.307Z,36.73
2022-08-19T10:52:18.990Z,36.76
2022-08-19T10:54:31.204Z,36.71
2022-08-19T10:56:54.577Z,36.74
2022-08-19T10:58:59.791Z,36.81
2022-08-19T11:01:02.313Z,36.86
2022-08-19T11:03:05.102Z,36.99
2022-08-19T11:05:12.590Z,37.00
2022-08-19T11:07:15.597Z,36.98
2022-08-19T11:09:24.339Z,37.05
2022-08-19T11:11:27.647Z,37.02
2022-08-19T11:13:36.428Z,37.09
2022-08-19T11:15:39.569Z,37.10
2022-08-19T11:17:42.497Z,37.09
2022-08-19T11:19:44.774Z,37.08
2022-08-19T11:21:49.543Z,37.08
2022-08-19T11:23:55.087Z,37.16
2022-08-19T11:26:01.227Z,37.31
2022-08-19T11:28:03.765Z,37.36
2022-08-19T11:30:08.730Z,37.38
2022-08-19T11:32:16.823Z,37.44
2022-08-19T11:34:23.028Z,37.45
2022-08-19T11:36:25.082Z,37.47
2022-08-19T11:38:28.242Z,37.44
2022-08-19T11:40:30.513Z,37.50
2022-08-19T11:42:51.425Z,37.59
2022-08-19T11:44:53.836Z,37.58
2022-08-19T11:46:56.742Z,37.57
2022-08-19T11:49:01.645Z,37.60
2022-08-19T11:51:10.584Z,37.60
2022-08-19T11:53:12.788Z,37.67
2022-08-19T11:55:15.526Z,37.71
2022-08-19T11:57:18.291Z,37.72
2022-08-19T11:59:20.748Z,37.76
2022-08-19T12:01:25.443Z,37.80
2022-08-19T12:03:27.673Z,37.85
2022-08-19T12:05:32.561Z,37.91
2022-08-19T12:07:37.680Z,37.90
2022-08-19T12:09:42.916Z,37.88
2022-08-19T12:11:45.518Z,37.88
2022-08-19T12:13:48.893Z,37.85
2022-08-19T12:15:53.251Z,37.87
2022-08-19T12:17:57.772Z,37.91
2022-08-19T12:20:00.145Z,37.97
2022-08-19T12:22:04.602Z,37.99
2022-08-19T12:24:07.763Z,37.96
2022-08-19T12:26:11.958Z,37.96
2022-08-19T12:28:14.675Z,37.73
2022-08-19T12:30:17.508Z,37.77
2022-08-19T12:32:19.912Z,37.83
2022-08-19T12:34:22.310Z,37.75
2022-08-19T12:36:25.226Z,37.78
2022-08-19T12:38:28.448Z,37.58
2022-08-19T12:40:33.925Z,37.60
2022-08-19T12:42:36.520Z,37.62
2022-08-19T12:44:41.628Z,37.41
2022-08-19T12:46:45.124Z,37.52
2022-08-19T12:48:47.821Z,37.45
2022-08-19T12:50:54.108Z,37.52
2022-08-19T12:52:59.600Z,37.59
2022-08-19T12:55:01.965Z,37.48
2022-08-19T12:57:11.840Z,37.46
2022-08-19T12:59:15.399Z,37.54
2022-08-19T13:01:22.655Z,37.62
2022-08-19T13:03:30.104Z,37.60
2022-08-19T13:05:37.042Z,37.59
2022-08-19T13:07:40.541Z,37.56
2022-08-19T13:09:43.595Z,37.57
2022-08-19T13:11:45.719Z,37.61
2022-08-19T13:13:51.267Z,37.67
2022-08-19T13:15:53.135Z,37.68
2022-08-19T13:17:57.138Z,37.60
2022-08-19T13:20:00.669Z,37.57
2022-08-19T13:22:02.545Z,37.58
2022-08-19T13:24:04.865Z,37.49
2022-08-19T13:26:09.476Z,37.46
2022-08-19T13:32:36.343Z,37.55
2022-08-19T13:34:38.608Z,37.61
2022-08-19T13:36:41.257Z,37.63
2022-08-19T13:38:43.413Z,37.64
2022-08-19T13:40:45.682Z,37.67
2022-08-19T13:42:53.666Z,37.64
2022-08-19T13:44:55.740Z,37.62
2022-08-19T13:47:10.124Z,37.58
2022-08-19T13:49:16.046Z,37.59
2022-08-19T13:51:19.136Z,37.53
2022-08-19T13:53:21.243Z,37.56
2022-08-19T13:55:25.020Z,37.51
2022-08-19T13:57:27.775Z,37.43
2022-08-19T13:59:30.025Z,37.43
2022-08-19T14:01:32.373Z,37.41
2022-08-19T14:03:35.722Z,37.45
2022-08-19T14:05:38.497Z,37.49
2022-08-19T14:07:40.728Z,37.47
2022-08-19T14:09:43.064Z,37.51
2022-08-19T14:11:48.674Z,37.47
2022-08-19T14:13:51.642Z,37.52
2022-08-19T14:15:54.424Z,37.56
2022-08-19T14:17:56.708Z,37.51
2022-08-19T14:20:10.963Z,37.46
2022-08-19T14:22:13.542Z,37.47
2022-08-19T14:24:16.691Z,37.42
2022-08-19T14:26:20.249Z,37.39
2022-08-19T14:28:22.480Z,37.32
2022-08-19T14:30:35.706Z,37.31
2022-08-19T14:32:38.758Z,37.31
2022-08-19T14:34:40.864Z,37.32
2022-08-19T14:36:43.496Z,37.39
2022-08-19T14:38:45.597Z,37.42
2022-08-19T14:40:50.058Z,37.44
2022-08-19T14:42:52.332Z,37.47
2022-08-19T14:44:55.037Z,37.48
2022-08-19T14:47:00.134Z,37.56
2022-08-19T14:49:09.416Z,37.56
2022-08-19T14:51:12.093Z,37.58
2022-08-19T14:53:14.236Z,37.56
2022-08-19T14:55:19.308Z,37.53
2022-08-19T14:57:23.798Z,37.52
2022-08-19T14:59:26.178Z,37.47
2022-08-19T15:01:28.765Z,37.47
2022-08-19T15:03:32.717Z,37.51
2022-08-19T15:05:37.078Z,37.51
2022-08-19T15:07:39.695Z,37.48
2022-08-19T15:09:43.063Z,37.52
2022-08-19T15:11:45.297Z,37.51
2022-08-19T15:13:48.539Z,37.51
2022-08-19T15:15:50.877Z,37.48
2022-08-19T15:17:54.080Z,37.44
2022-08-19T15:19:56.342Z,37.40
2022-08-19T15:21:59.809Z,37.39
2022-08-19T15:24:02.348Z,37.34
2022-08-19T15:26:07.111Z,37.38
2022-08-19T15:28:12.217Z,37.37
2022-08-19T15:30:22.031Z,37.32
2022-08-19T15:32:26.446Z,37.35
2022-08-19T15:34:29.158Z,37.34
2022-08-19T15:36:31.639Z,37.36
2022-08-19T15:38:39.537Z,37.32
2022-08-19T15:40:43.222Z,37.30
2022-08-19T15:42:45.858Z,37.30
2022-08-19T15:44:52.042Z,37.26
2022-08-19T15:46:56.417Z,37.21
2022-08-19T15:49:00.354Z,37.17
2022-08-19T15:51:03.031Z,37.14
2022-08-19T15:53:08.818Z,37.09
2022-08-19T15:55:11.072Z,37.10
2022-08-19T15:57:27.302Z,37.06
2022-08-19T15:59:48.180Z,37.03
2022-08-19T16:02:10.681Z,37.03
2022-08-19T16:04:34.227Z,36.96
2022-08-19T16:06:36.781Z,36.94
2022-08-19T16:08:48.779Z,36.91
2022-08-19T16:10:51.260Z,36.95
2022-08-19T16:12:53.570Z,36.96
2022-08-19T16:14:56.179Z,36.92
2022-08-19T16:16:58.759Z,36.88
2022-08-19T16:19:03.820Z,36.90
2022-08-19T16:21:08.730Z,36.90
2022-08-19T16:23:11.287Z,36.92
2022-08-19T16:25:14.327Z,36.90
2022-08-19T16:27:16.643Z,36.84
2022-08-19T16:29:33.545Z,36.78
2022-08-19T16:31:40.713Z,36.77
2022-08-19T16:33:43.125Z,36.76
2022-08-19T16:35:45.355Z,36.77
2022-08-19T16:37:54.433Z,36.75
2022-08-19T16:39:56.983Z,36.73
2022-08-19T16:41:59.908Z,36.71
2022-08-19T16:44:02.014Z,36.71
2022-08-19T16:46:07.343Z,36.69
2022-08-19T16:48:09.732Z,36.66
2022-08-19T16:50:13.886Z,36.65
2022-08-19T16:52:16.532Z,36.61
2022-08-19T16:54:19.229Z,36.60
2022-08-19T16:56:21.809Z,36.54
2022-08-19T16:58:28.313Z,36.50
2022-08-19T17:00:33.858Z,36.46
2022-08-19T17:02:37.382Z,36.37
2022-08-19T17:04:39.797Z,36.35
2022-08-19T17:06:43.697Z,36.29
2022-08-19T17:08:48.733Z,36.24
2022-08-19T17:11:16.430Z,36.18
2022-08-19T17:13:16.551Z,36.12
2022-08-19T17:15:19.135Z,36.08
2022-08-19T17:17:24.709Z,36.04
2022-08-19T17:19:29.688Z,36.00
2022-08-19T17:21:34.366Z,35.95
2022-08-19T17:23:43.627Z,35.90
2022-08-19T17:25:46.640Z,35.84
2022-08-19T17:27:49.416Z,35.78
2022-08-19T17:29:52.368Z,35.69
2022-08-19T17:31:54.430Z,35.65
2022-08-19T17:33:59.317Z,35.56
2022-08-19T17:36:03.785Z,35.48
2022-08-19T17:38:09.107Z,35.43
2022-08-19T17:40:15.796Z,35.33
2022-08-19T17:42:23.426Z,35.27
2022-08-19T17:44:25.702Z,35.21
2022-08-19T17:46:27.780Z,35.16
2022-08-19T17:48:32.299Z,35.11
2022-08-19T17:50:36.321Z,35.04
2022-08-19T17:52:39.998Z,34.99
2022-08-19T17:54:42.596Z,34.92
2022-08-19T17:56:46.277Z,34.85
2022-08-19T17:58:59.901Z,34.79
2022-08-19T18:01:04.111Z,34.73
2022-08-19T18:03:07.528Z,34.69
2022-08-19T18:05:14.918Z,34.63
2022-08-19T18:07:21.526Z,34.57
2022-08-19T18:09:38.655Z,34.51
2022-08-19T18:11:44.945Z,34.45
2022-08-19T18:13:55.118Z,34.37
2022-08-19T18:15:59.039Z,34.31
2022-08-19T18:18:00.951Z,34.28
2022-08-19T18:20:12.241Z,34.16
2022-08-19T18:22:37.045Z,34.05
2022-08-19T18:24:46.169Z,34.08
2022-08-19T18:26:49.681Z,34.03
2022-08-19T18:28:52.480Z,33.91
2022-08-19T18:30:56.571Z,33.96
2022-08-19T18:33:00.092Z,33.98
2022-08-19T18:35:06.923Z,34.01
2022-08-19T18:37:09.868Z,33.96
2022-08-19T18:39:30.145Z,33.94
2022-08-19T18:41:50.875Z,33.85
2022-08-19T18:44:11.744Z,33.77
2022-08-19T18:46:36.836Z,33.70
2022-08-19T18:48:58.507Z,33.59
2022-08-19T18:51:02.652Z,33.36
2022-08-19T18:53:08.106Z,33.28
2022-08-19T18:55:10.563Z,33.18
2022-08-19T18:57:13.598Z,33.16
2022-08-19T18:59:16.200Z,33.16
2022-08-19T19:01:23.320Z,33.24
2022-08-19T19:03:27.049Z,33.25
2022-08-19T19:05:29.528Z,33.24
2022-08-19T19:07:31.635Z,33.17
2022-08-19T19:09:34.567Z,33.17
2022-08-19T19:11:40.254Z,33.17
2022-08-19T19:13:48.172Z,33.13
2022-08-19T19:15:50.739Z,33.10
2022-08-19T19:17:53.062Z,33.04
2022-08-19T19:19:55.398Z,32.94
2022-08-19T19:21:58.799Z,32.84
2022-08-19T19:24:01.679Z,32.73
2022-08-19T19:26:06.224Z,32.74
2022-08-19T19:28:10.155Z,32.64
2022-08-19T19:30:16.756Z,32.63
2022-08-19T19:32:26.394Z,32.61
2022-08-19T19:34:29.716Z,32.64
2022-08-19T19:36:34.900Z,32.62
2022-08-19T19:38:37.507Z,32.58
2022-08-19T19:40:39.986Z,32.54
2022-08-19T19:42:42.216Z,32.54
2022-08-19T19:44:48.216Z,32.52
2022-08-19T19:46:51.157Z,32.35
2022-08-19T19:48:57.081Z,32.16
2022-08-19T19:52:03.993Z,32.01
2022-08-19T19:54:13.866Z,31.97
2022-08-19T19:56:16.893Z,32.00
2022-08-19T19:58:21.212Z,31.81
2022-08-19T20:00:31.259Z,31.75
2022-08-19T20:02:33.693Z,31.66
2022-08-19T20:04:39.216Z,31.52
2022-08-19T20:06:44.261Z,31.50
2022-08-19T20:09:06.228Z,31.37
2022-08-19T20:11:08.699Z,31.32
2022-08-19T20:13:11.874Z,31.10
2022-08-19T20:15:15.046Z,31.10
2022-08-19T20:17:17.034Z,31.01
2022-08-19T20:19:22.983Z,31.10
2022-08-19T20:21:32.241Z,31.15
2022-08-19T20:23:34.888Z,31.22
2022-08-19T20:25:39.092Z,31.30
2022-08-19T20:27:42.425Z,31.29
2022-08-19T20:29:45.085Z,31.24
2022-08-19T20:31:59.063Z,31.14
2022-08-19T20:34:02.214Z,31.01
2022-08-19T20:36:05.136Z,30.89
2022-08-19T20:38:08.892Z,30.77
2022-08-19T20:40:15.262Z,30.71
2022-08-19T20:42:17.535Z,30.60
2022-08-19T20:44:20.207Z,30.53
2022-08-19T20:46:22.617Z,30.62
2022-08-19T20:48:24.881Z,30.63
2022-08-19T20:50:27.103Z,30.56
2022-08-19T20:52:33.363Z,30.60
2022-08-19T20:54:35.890Z,30.56
2022-08-19T20:56:38.345Z,30.56
2022-08-19T20:58:41.783Z,30.51
2022-08-19T21:00:46.068Z,30.53
2022-08-19T21:02:48.167Z,30.45
2022-08-19T21:04:50.774Z,30.48
2022-08-19T21:06:53.197Z,30.54
2022-08-19T21:08:55.108Z,30.51
2022-08-19T21:10:58.310Z,30.54
2022-08-19T21:13:00.793Z,30.59
2022-08-19T21:15:03.181Z,30.47
2022-08-19T21:17:05.436Z,30.55
2022-08-19T21:19:07.548Z,30.63
2022-08-19T21:21:12.252Z,30.67
2022-08-19T21:23:20.957Z,30.67
2022-08-19T21:25:23.368Z,30.73
2022-08-19T21:27:25.437Z,30.72
2022-08-19T21:29:27.753Z,30.68
2022-08-19T21:31:29.723Z,30.53
2022-08-19T21:33:32.233Z,30.50
2022-08-19T21:35:34.902Z,30.55
2022-08-19T21:37:38.841Z,30.64
2022-08-19T21:39:43.675Z,30.71
2022-08-19T21:41:46.895Z,30.63
2022-08-19T21:43:52.030Z,30.62
2022-08-19T21:45:54.360Z,30.63
2022-08-19T21:47:57.016Z,30.66
2022-08-19T21:49:59.335Z,30.69
2022-08-19T21:52:02.109Z,30.72
2022-08-19T21:54:05.726Z,30.71
2022-08-19T21:56:08.053Z,30.70
2022-08-19T21:58:12.020Z,30.68
2022-08-19T22:00:18.946Z,30.65
2022-08-19T22:02:22.050Z,30.63
2022-08-19T22:04:24.381Z,30.62
2022-08-19T22:06:28.632Z,30.58
2022-08-19T22:08:31.635Z,30.50
2022-08-19T22:10:34.288Z,30.50
2022-08-19T22:12:39.152Z,30.49
2022-08-19T22:14:50.501Z,30.43
2022-08-19T22:16:52.721Z,30.38
2022-08-19T22:18:55.257Z,30.38
2022-08-19T22:20:57.943Z,30.35
2022-08-19T22:23:04.576Z,30.31
2022-08-19T22:25:12.922Z,30.31
2022-08-19T22:27:32.607Z,30.28
2022-08-19T22:29:34.737Z,30.22
2022-08-19T22:31:37.805Z,30.20
2022-08-19T22:33:40.179Z,30.20
2022-08-19T22:35:44.948Z,30.17
2022-08-19T22:37:47.194Z,30.12
2022-08-19T22:39:49.533Z,30.08
2022-08-19T22:41:52.104Z,30.07
2022-08-19T22:43:54.765Z,30.02
2022-08-19T22:45:58.378Z,29.98
2022-08-19T22:48:00.572Z,29.91
2022-08-19T22:50:03.112Z,29.87
2022-08-19T22:52:17.686Z,29.86
2022-08-19T22:54:19.913Z,29.84
2022-08-19T22:56:22.447Z,29.82
2022-08-19T22:58:28.116Z,29.79
2022-08-19T23:00:31.065Z,29.73
2022-08-19T23:02:51.562Z,29.69
2022-08-19T23:04:54.926Z,29.67
2022-08-19T23:06:57.010Z,29.63
2022-08-19T23:08:59.283Z,29.59
2022-08-19T23:11:01.565Z,29.60
2022-08-19T23:13:03.766Z,29.57
2022-08-19T23:15:14.610Z,29.54
2022-08-19T23:17:20.556Z,29.55
2022-08-19T23:19:22.661Z,29.55
2022-08-19T23:21:26.632Z,29.49
2022-08-19T23:23:28.831Z,29.47
2022-08-19T23:25:33.632Z,29.44
2022-08-19T23:27:54.409Z,29.40
2022-08-19T23:30:15.581Z,29.35
2022-08-19T23:32:19.607Z,29.29
2022-08-19T23:34:22.068Z,29.24
2022-08-19T23:36:24.044Z,29.20
2022-08-19T23:38:28.590Z,29.18
2022-08-19T23:40:30.913Z,29.18
2022-08-19T23:42:33.058Z,29.14
2022-08-19T23:44:35.285Z,29.12
2022-08-19T23:46:54.977Z,29.05
2022-08-19T23:48:57.853Z,29.04
2022-08-19T23:51:03.775Z,29.02
2022-08-19T23:53:05.829Z,28.95
2022-08-19T23:55:08.233Z,28.95
2022-08-19T23:57:13.524Z,28.94
2022-08-19T23:59:19.378Z,28.91
